sensor_id;sensor_type;location;lat;lon;timestamp;P1;durP1;ratioP1;P2;durP2;ratioP2
34775;SDS011;20989;52.566;13.346;2022-10-23T00:01:44;0.60;;;0.60;;
34775;SDS011;20989;52.566;13.346;2022-10-23T00:04:45;0.60;;;0.60;;
34775;SDS011;20989;52.566;13.346;2022-10-23T00:07:50;2.25;;;0.65;;
34775;SDS011;20989;52.566;13.346;2022-10-23T00:10:55;0.60;;;0.60;;
34775;SDS011;20989;52.566;13.346;2022-10-23T00:13:57;0.60;;;0.60;;
34775;SDS011;20989;52.566;13.346;2022-10-23T00:17:00;0.70;;;0.70;;
34775;SDS011;20989;52.566;13.346;2022-10-23T00:20:00;0.50;;;0.50;;
34775;SDS011;20989;52.566;13.346;2022-10-23T00:23:01;0.70;;;0.70;;
34775;SDS011;20989;52.566;13.346;2022-10-23T00:26:02;0.80;;;0.80;;
34775;SDS011;20989;52.566;13.346;2022-10-23T00:29:03;0.65;;;0.65;;
34775;SDS011;20989;52.566;13.346;2022-10-23T00:32:04;0.50;;;0.50;;
34775;SDS011;20989;52.566;13.346;2022-10-23T00:35:05;0.50;;;0.50;;
34775;SDS011;20989;52.566;13.346;2022-10-23T00:38:06;0.50;;;0.50;;
34775;SDS011;20989;52.566;13.346;2022-10-23T00:41:08;0.60;;;0.60;;
34775;SDS011;20989;52.566;13.346;2022-10-23T00:47:17;0.60;;;0.52;;
34775;SDS011;20989;52.566;13.346;2022-10-23T00:50:18;0.70;;;0.70;;
34775;SDS011;20989;52.566;13.346;2022-10-23T00:53:22;0.50;;;0.50;;
34775;SDS011;20989;52.566;13.346;2022-10-23T00:56:24;1.30;;;0.77;;
34775;SDS011;20989;52.566;13.346;2022-10-23T00:59:25;0.70;;;0.70;;
34775;SDS011;20989;52.566;13.346;2022-10-23T01:02:27;0.70;;;0.70;;
34775;SDS011;20989;52.566;13.346;2022-10-23T01:05:29;0.60;;;0.60;;
34775;SDS011;20989;52.566;13.346;2022-10-23T01:12:07;0.77;;;0.50;;
34775;SDS011;20989;52.566;13.346;2022-10-23T01:15:32;0.60;;;0.60;;
34775;SDS011;20989;52.566;13.346;2022-10-23T01:22:05;1.10;;;0.73;;
34775;SDS011;20989;52.566;13.346;2022-10-23T01:26:04;0.63;;;0.63;;
34775;SDS011;20989;52.566;13.346;2022-10-23T01:32:50;0.75;;;0.70;;
34775;SDS011;20989;52.566;13.346;2022-10-23T01:36:10;0.63;;;0.63;;
34775;SDS011;20989;52.566;13.346;2022-10-23T01:39:23;0.90;;;0.90;;
34775;SDS011;20989;52.566;13.346;2022-10-23T01:42:30;0.40;;;0.40;;
34775;SDS011;20989;52.566;13.346;2022-10-23T01:45:39;1.10;;;0.85;;
34775;SDS011;20989;52.566;13.346;2022-10-23T01:48:45;0.50;;;0.50;;
34775;SDS011;20989;52.566;13.346;2022-10-23T01:51:52;0.57;;;0.57;;
34775;SDS011;20989;52.566;13.346;2022-10-23T01:54:55;0.50;;;0.50;;
34775;SDS011;20989;52.566;13.346;2022-10-23T01:57:59;0.60;;;0.60;;
34775;SDS011;20989;52.566;13.346;2022-10-23T02:01:03;0.70;;;0.70;;
34775;SDS011;20989;52.566;13.346;2022-10-23T02:04:06;0.55;;;0.52;;
34775;SDS011;20989;52.566;13.346;2022-10-23T02:07:12;0.70;;;0.70;;
34775;SDS011;20989;52.566;13.346;2022-10-23T02:10:14;0.70;;;0.50;;
34775;SDS011;20989;52.566;13.346;2022-10-23T02:13:23;0.80;;;0.80;;
34775;SDS011;20989;52.566;13.346;2022-10-23T02:26:35;0.60;;;0.60;;
34775;SDS011;20989;52.566;13.346;2022-10-23T02:29:44;0.40;;;0.40;;
34775;SDS011;20989;52.566;13.346;2022-10-23T02:32:52;0.60;;;0.60;;
34775;SDS011;20989;52.566;13.346;2022-10-23T02:35:55;0.70;;;0.60;;
34775;SDS011;20989;52.566;13.346;2022-10-23T02:38:56;0.50;;;0.50;;
34775;SDS011;20989;52.566;13.346;2022-10-23T02:45:16;0.70;;;0.70;;
34775;SDS011;20989;52.566;13.346;2022-10-23T02:48:22;0.55;;;0.55;;
34775;SDS011;20989;52.566;13.346;2022-10-23T02:51:32;0.55;;;0.55;;
34775;SDS011;20989;52.566;13.346;2022-10-23T02:58:44;0.68;;;0.68;;
34775;SDS011;20989;52.566;13.346;2022-10-23T03:01:50;0.55;;;0.55;;
34775;SDS011;20989;52.566;13.346;2022-10-23T03:04:57;0.60;;;0.60;;
34775;SDS011;20989;52.566;13.346;2022-10-23T03:08:01;0.70;;;0.70;;
34775;SDS011;20989;52.566;13.346;2022-10-23T03:11:08;0.45;;;0.45;;
34775;SDS011;20989;52.566;13.346;2022-10-23T03:14:09;0.60;;;0.60;;
34775;SDS011;20989;52.566;13.346;2022-10-23T03:17:12;0.80;;;0.80;;
34775;SDS011;20989;52.566;13.346;2022-10-23T03:20:12;0.75;;;0.75;;
34775;SDS011;20989;52.566;13.346;2022-10-23T03:23:13;0.50;;;0.50;;
34775;SDS011;20989;52.566;13.346;2022-10-23T03:26:14;0.60;;;0.60;;
34775;SDS011;20989;52.566;13.346;2022-10-23T03:29:15;0.60;;;0.60;;
34775;SDS011;20989;52.566;13.346;2022-10-23T03:32:16;0.50;;;0.50;;
34775;SDS011;20989;52.566;13.346;2022-10-23T03:35:17;0.60;;;0.50;;
34775;SDS011;20989;52.566;13.346;2022-10-23T03:38:18;0.55;;;0.55;;
34775;SDS011;20989;52.566;13.346;2022-10-23T03:41:19;0.63;;;0.63;;
34775;SDS011;20989;52.566;13.346;2022-10-23T03:44:22;0.60;;;0.60;;
34775;SDS011;20989;52.566;13.346;2022-10-23T03:47:22;0.80;;;0.80;;
34775;SDS011;20989;52.566;13.346;2022-10-23T03:50:23;0.90;;;0.70;;
34775;SDS011;20989;52.566;13.346;2022-10-23T03:53:24;0.68;;;0.68;;
34775;SDS011;20989;52.566;13.346;2022-10-23T03:56:25;0.80;;;0.80;;
34775;SDS011;20989;52.566;13.346;2022-10-23T03:59:26;0.68;;;0.68;;
34775;SDS011;20989;52.566;13.346;2022-10-23T04:02:27;1.33;;;0.90;;
34775;SDS011;20989;52.566;13.346;2022-10-23T04:05:28;1.30;;;0.93;;
34775;SDS011;20989;52.566;13.346;2022-10-23T04:08:28;0.75;;;0.73;;
34775;SDS011;20989;52.566;13.346;2022-10-23T04:11:29;1.02;;;0.85;;
34775;SDS011;20989;52.566;13.346;2022-10-23T04:14:30;0.70;;;0.65;;
34775;SDS011;20989;52.566;13.346;2022-10-23T04:17:31;0.70;;;0.70;;
34775;SDS011;20989;52.566;13.346;2022-10-23T04:20:32;1.30;;;0.95;;
34775;SDS011;20989;52.566;13.346;2022-10-23T04:23:32;2.67;;;1.10;;
34775;SDS011;20989;52.566;13.346;2022-10-23T04:26:33;1.75;;;0.88;;
34775;SDS011;20989;52.566;13.346;2022-10-23T04:29:34;1.50;;;1.08;;
34775;SDS011;20989;52.566;13.346;2022-10-23T04:32:34;1.65;;;0.82;;
34775;SDS011;20989;52.566;13.346;2022-10-23T04:35:35;0.98;;;0.98;;
34775;SDS011;20989;52.566;13.346;2022-10-23T04:38:36;2.20;;;0.80;;
34775;SDS011;20989;52.566;13.346;2022-10-23T04:41:36;2.45;;;1.52;;
34775;SDS011;20989;52.566;13.346;2022-10-23T04:44:38;3.22;;;1.00;;
34775;SDS011;20989;52.566;13.346;2022-10-23T04:47:38;1.35;;;1.20;;
34775;SDS011;20989;52.566;13.346;2022-10-23T04:50:39;1.67;;;0.93;;
34775;SDS011;20989;52.566;13.346;2022-10-23T04:53:39;1.65;;;1.13;;
34775;SDS011;20989;52.566;13.346;2022-10-23T04:56:40;0.57;;;0.57;;
34775;SDS011;20989;52.566;13.346;2022-10-23T05:03:38;4.47;;;1.42;;
34775;SDS011;20989;52.566;13.346;2022-10-23T05:06:39;2.10;;;1.25;;
34775;SDS011;20989;52.566;13.346;2022-10-23T05:09:39;2.33;;;1.27;;
34775;SDS011;20989;52.566;13.346;2022-10-23T05:12:40;2.70;;;1.20;;
34775;SDS011;20989;52.566;13.346;2022-10-23T05:15:41;3.60;;;1.45;;
34775;SDS011;20989;52.566;13.346;2022-10-23T05:18:44;2.40;;;1.58;;
34775;SDS011;20989;52.566;13.346;2022-10-23T05:21:47;5.20;;;1.90;;
34775;SDS011;20989;52.566;13.346;2022-10-23T05:24:54;2.85;;;1.70;;
34775;SDS011;20989;52.566;13.346;2022-10-23T05:27:56;4.15;;;2.05;;
34775;SDS011;20989;52.566;13.346;2022-10-23T05:30:57;3.25;;;2.00;;
34775;SDS011;20989;52.566;13.346;2022-10-23T05:34:01;3.95;;;1.85;;
34775;SDS011;20989;52.566;13.346;2022-10-23T05:37:02;3.95;;;1.55;;
34775;SDS011;20989;52.566;13.346;2022-10-23T05:40:05;3.53;;;2.20;;
34775;SDS011;20989;52.566;13.346;2022-10-23T05:43:06;4.72;;;1.80;;
34775;SDS011;20989;52.566;13.346;2022-10-23T05:46:07;3.47;;;1.92;;
34775;SDS011;20989;52.566;13.346;2022-10-23T05:49:08;4.78;;;2.22;;
34775;SDS011;20989;52.566;13.346;2022-10-23T05:52:10;3.03;;;1.60;;
34775;SDS011;20989;52.566;13.346;2022-10-23T05:55:11;2.35;;;1.30;;
34775;SDS011;20989;52.566;13.346;2022-10-23T05:58:12;2.95;;;1.52;;
34775;SDS011;20989;52.566;13.346;2022-10-23T06:01:12;3.58;;;1.80;;
34775;SDS011;20989;52.566;13.346;2022-10-23T06:04:13;2.25;;;1.45;;
34775;SDS011;20989;52.566;13.346;2022-10-23T06:07:14;2.92;;;1.70;;
34775;SDS011;20989;52.566;13.346;2022-10-23T06:10:15;1.92;;;1.40;;
34775;SDS011;20989;52.566;13.346;2022-10-23T06:13:16;3.03;;;1.50;;
34775;SDS011;20989;52.566;13.346;2022-10-23T06:16:20;2.38;;;1.55;;
34775;SDS011;20989;52.566;13.346;2022-10-23T06:19:23;3.03;;;1.77;;
34775;SDS011;20989;52.566;13.346;2022-10-23T06:22:24;2.55;;;1.70;;
34775;SDS011;20989;52.566;13.346;2022-10-23T06:25:25;2.85;;;1.60;;
34775;SDS011;20989;52.566;13.346;2022-10-23T06:28:26;3.53;;;2.03;;
34775;SDS011;20989;52.566;13.346;2022-10-23T06:31:27;2.83;;;1.50;;
34775;SDS011;20989;52.566;13.346;2022-10-23T06:34:27;1.33;;;1.17;;
34775;SDS011;20989;52.566;13.346;2022-10-23T06:37:28;2.35;;;1.40;;
34775;SDS011;20989;52.566;13.346;2022-10-23T06:40:29;3.28;;;1.65;;
34775;SDS011;20989;52.566;13.346;2022-10-23T06:43:29;2.45;;;1.80;;
34775;SDS011;20989;52.566;13.346;2022-10-23T06:46:30;2.22;;;1.48;;
34775;SDS011;20989;52.566;13.346;2022-10-23T06:49:33;2.47;;;1.85;;
34775;SDS011;20989;52.566;13.346;2022-10-23T06:52:34;2.80;;;1.10;;
34775;SDS011;20989;52.566;13.346;2022-10-23T06:55:35;2.25;;;1.55;;
34775;SDS011;20989;52.566;13.346;2022-10-23T06:58:36;2.15;;;1.70;;
34775;SDS011;20989;52.566;13.346;2022-10-23T07:01:39;1.80;;;1.10;;
34775;SDS011;20989;52.566;13.346;2022-10-23T07:04:39;2.03;;;1.30;;
34775;SDS011;20989;52.566;13.346;2022-10-23T07:07:40;1.30;;;1.20;;
34775;SDS011;20989;52.566;13.346;2022-10-23T07:10:41;1.90;;;1.52;;
34775;SDS011;20989;52.566;13.346;2022-10-23T07:13:42;1.67;;;1.52;;
34775;SDS011;20989;52.566;13.346;2022-10-23T07:16:43;1.88;;;1.50;;
34775;SDS011;20989;52.566;13.346;2022-10-23T07:19:45;1.88;;;1.33;;
34775;SDS011;20989;52.566;13.346;2022-10-23T07:22:50;1.30;;;1.20;;
34775;SDS011;20989;52.566;13.346;2022-10-23T07:25:52;2.00;;;1.20;;
34775;SDS011;20989;52.566;13.346;2022-10-23T07:28:53;2.15;;;1.33;;
34775;SDS011;20989;52.566;13.346;2022-10-23T07:31:54;1.30;;;1.20;;
34775;SDS011;20989;52.566;13.346;2022-10-23T07:34:55;1.60;;;1.40;;
34775;SDS011;20989;52.566;13.346;2022-10-23T07:37:58;1.50;;;1.33;;
34775;SDS011;20989;52.566;13.346;2022-10-23T07:40:59;1.60;;;1.20;;
34775;SDS011;20989;52.566;13.346;2022-10-23T07:44:01;1.40;;;1.27;;
34775;SDS011;20989;52.566;13.346;2022-10-23T07:47:01;7.45;;;1.50;;
34775;SDS011;20989;52.566;13.346;2022-10-23T07:50:03;10.45;;;3.80;;
34775;SDS011;20989;52.566;13.346;2022-10-23T07:53:04;7.65;;;4.20;;
34775;SDS011;20989;52.566;13.346;2022-10-23T07:56:11;7.30;;;2.53;;
34775;SDS011;20989;52.566;13.346;2022-10-23T07:59:14;5.00;;;2.72;;
34775;SDS011;20989;52.566;13.346;2022-10-23T08:02:16;5.32;;;2.88;;
34775;SDS011;20989;52.566;13.346;2022-10-23T08:05:20;6.80;;;2.40;;
34775;SDS011;20989;52.566;13.346;2022-10-23T08:08:21;5.47;;;2.28;;
34775;SDS011;20989;52.566;13.346;2022-10-23T08:11:23;2.20;;;1.67;;
34775;SDS011;20989;52.566;13.346;2022-10-23T08:14:29;2.65;;;2.33;;
34775;SDS011;20989;52.566;13.346;2022-10-23T08:17:30;1.85;;;1.75;;
34775;SDS011;20989;52.566;13.346;2022-10-23T08:20:31;4.50;;;2.60;;
34775;SDS011;20989;52.566;13.346;2022-10-23T08:23:33;1.90;;;1.80;;
34775;SDS011;20989;52.566;13.346;2022-10-23T08:26:34;4.72;;;1.98;;
34775;SDS011;20989;52.566;13.346;2022-10-23T08:29:34;5.22;;;2.38;;
34775;SDS011;20989;52.566;13.346;2022-10-23T08:32:35;2.85;;;1.83;;
34775;SDS011;20989;52.566;13.346;2022-10-23T08:35:36;2.42;;;2.10;;
34775;SDS011;20989;52.566;13.346;2022-10-23T08:38:37;4.05;;;1.80;;
34775;SDS011;20989;52.566;13.346;2022-10-23T08:41:39;1.98;;;1.80;;
34775;SDS011;20989;52.566;13.346;2022-10-23T08:45:27;1.50;;;1.40;;
34775;SDS011;20989;52.566;13.346;2022-10-23T08:51:41;1.60;;;1.50;;
34775;SDS011;20989;52.566;13.346;2022-10-23T08:58:04;1.67;;;1.55;;
34775;SDS011;20989;52.566;13.346;2022-10-23T09:04:41;3.53;;;1.63;;
34775;SDS011;20989;52.566;13.346;2022-10-23T09:11:07;1.85;;;1.60;;
34775;SDS011;20989;52.566;13.346;2022-10-23T09:17:53;1.60;;;1.50;;
34775;SDS011;20989;52.566;13.346;2022-10-23T09:21:14;1.73;;;1.50;;
34775;SDS011;20989;52.566;13.346;2022-10-23T09:24:16;2.35;;;1.40;;
34775;SDS011;20989;52.566;13.346;2022-10-23T09:27:19;1.42;;;1.33;;
34775;SDS011;20989;52.566;13.346;2022-10-23T09:30:23;2.05;;;1.60;;
34775;SDS011;20989;52.566;13.346;2022-10-23T09:33:26;2.17;;;1.40;;
34775;SDS011;20989;52.566;13.346;2022-10-23T09:36:27;2.08;;;1.77;;
34775;SDS011;20989;52.566;13.346;2022-10-23T09:39:29;1.42;;;1.33;;
34775;SDS011;20989;52.566;13.346;2022-10-23T09:42:35;1.42;;;1.27;;
34775;SDS011;20989;52.566;13.346;2022-10-23T09:45:35;2.83;;;1.65;;
34775;SDS011;20989;52.566;13.346;2022-10-23T09:48:38;1.52;;;1.42;;
34775;SDS011;20989;52.566;13.346;2022-10-23T09:51:47;1.20;;;1.20;;
34775;SDS011;20989;52.566;13.346;2022-10-23T09:54:52;1.40;;;1.30;;
34775;SDS011;20989;52.566;13.346;2022-10-23T09:57:55;1.20;;;1.20;;
34775;SDS011;20989;52.566;13.346;2022-10-23T10:00:56;1.30;;;1.20;;
34775;SDS011;20989;52.566;13.346;2022-10-23T10:03:57;1.33;;;1.23;;
34775;SDS011;20989;52.566;13.346;2022-10-23T10:06:58;1.98;;;1.30;;
34775;SDS011;20989;52.566;13.346;2022-10-23T10:10:01;1.80;;;1.50;;
34775;SDS011;20989;52.566;13.346;2022-10-23T10:13:03;1.45;;;1.30;;
34775;SDS011;20989;52.566;13.346;2022-10-23T10:23:11;1.50;;;1.40;;
34775;SDS011;20989;52.566;13.346;2022-10-23T10:26:27;0.85;;;0.85;;
34775;SDS011;20989;52.566;13.346;2022-10-23T10:49:26;1.02;;;1.02;;
34775;SDS011;20989;52.566;13.346;2022-10-23T10:52:33;1.77;;;1.30;;
34775;SDS011;20989;52.566;13.346;2022-10-23T10:55:40;1.27;;;1.13;;
34775;SDS011;20989;52.566;13.346;2022-10-23T10:58:57;1.00;;;1.00;;
34775;SDS011;20989;52.566;13.346;2022-10-23T11:02:10;1.30;;;1.30;;
34775;SDS011;20989;52.566;13.346;2022-10-23T11:08:35;1.48;;;1.38;;
34775;SDS011;20989;52.566;13.346;2022-10-23T11:11:38;0.98;;;0.93;;
34775;SDS011;20989;52.566;13.346;2022-10-23T11:14:39;1.20;;;1.20;;
34775;SDS011;20989;52.566;13.346;2022-10-23T11:17:43;1.35;;;1.10;;
34775;SDS011;20989;52.566;13.346;2022-10-23T11:27:45;1.00;;;1.00;;
34775;SDS011;20989;52.566;13.346;2022-10-23T11:37:37;1.02;;;0.95;;
34775;SDS011;20989;52.566;13.346;2022-10-23T11:40:42;1.10;;;1.10;;
34775;SDS011;20989;52.566;13.346;2022-10-23T11:53:09;0.88;;;0.88;;
34775;SDS011;20989;52.566;13.346;2022-10-23T11:56:31;1.10;;;1.10;;
34775;SDS011;20989;52.566;13.346;2022-10-23T11:59:33;0.95;;;0.95;;
34775;SDS011;20989;52.566;13.346;2022-10-23T12:02:38;0.98;;;0.98;;
34775;SDS011;20989;52.566;13.346;2022-10-23T12:05:41;0.80;;;0.80;;
34775;SDS011;20989;52.566;13.346;2022-10-23T12:08:44;0.80;;;0.80;;
34775;SDS011;20989;52.566;13.346;2022-10-23T12:12:02;0.90;;;0.90;;
34775;SDS011;20989;52.566;13.346;2022-10-23T12:15:15;0.95;;;0.95;;
34775;SDS011;20989;52.566;13.346;2022-10-23T12:18:18;0.98;;;0.80;;
34775;SDS011;20989;52.566;13.346;2022-10-23T12:21:19;1.20;;;1.10;;
34775;SDS011;20989;52.566;13.346;2022-10-23T12:41:03;0.90;;;0.90;;
34775;SDS011;20989;52.566;13.346;2022-10-23T12:44:10;0.82;;;0.82;;
34775;SDS011;20989;52.566;13.346;2022-10-23T12:47:14;0.70;;;0.70;;
34775;SDS011;20989;52.566;13.346;2022-10-23T12:50:22;0.88;;;0.88;;
34775;SDS011;20989;52.566;13.346;2022-10-23T12:53:25;0.82;;;0.82;;
34775;SDS011;20989;52.566;13.346;2022-10-23T12:56:26;13.30;;;1.65;;
34775;SDS011;20989;52.566;13.346;2022-10-23T12:59:36;18.08;;;2.42;;
34775;SDS011;20989;52.566;13.346;2022-10-23T13:02:38;2.63;;;1.10;;
34775;SDS011;20989;52.566;13.346;2022-10-23T13:05:38;2.05;;;1.33;;
34775;SDS011;20989;52.566;13.346;2022-10-23T13:08:40;9.27;;;1.58;;
34775;SDS011;20989;52.566;13.346;2022-10-23T13:11:44;3.50;;;2.03;;
34775;SDS011;20989;52.566;13.346;2022-10-23T13:14:55;7.63;;;1.70;;
34775;SDS011;20989;52.566;13.346;2022-10-23T13:18:07;4.05;;;1.90;;
34775;SDS011;20989;52.566;13.346;2022-10-23T13:21:20;4.47;;;1.85;;
34775;SDS011;20989;52.566;13.346;2022-10-23T13:24:26;2.92;;;1.40;;
34775;SDS011;20989;52.566;13.346;2022-10-23T13:30:31;8.95;;;1.83;;
34775;SDS011;20989;52.566;13.346;2022-10-23T13:33:48;3.13;;;1.10;;
34775;SDS011;20989;52.566;13.346;2022-10-23T13:40:04;3.72;;;1.25;;
34775;SDS011;20989;52.566;13.346;2022-10-23T13:43:16;1.58;;;0.90;;
34775;SDS011;20989;52.566;13.346;2022-10-23T13:46:19;6.97;;;1.23;;
34775;SDS011;20989;52.566;13.346;2022-10-23T13:49:21;3.00;;;1.40;;
34775;SDS011;20989;52.566;13.346;2022-10-23T13:52:22;2.75;;;0.95;;
34775;SDS011;20989;52.566;13.346;2022-10-23T13:55:23;2.92;;;0.90;;
34775;SDS011;20989;52.566;13.346;2022-10-23T13:58:25;1.30;;;1.05;;
34775;SDS011;20989;52.566;13.346;2022-10-23T14:01:30;2.58;;;1.33;;
34775;SDS011;20989;52.566;13.346;2022-10-23T14:04:32;1.35;;;1.00;;
34775;SDS011;20989;52.566;13.346;2022-10-23T14:07:32;2.25;;;1.02;;
34775;SDS011;20989;52.566;13.346;2022-10-23T14:10:33;1.25;;;1.17;;
34775;SDS011;20989;52.566;13.346;2022-10-23T14:13:34;8.27;;;1.23;;
34775;SDS011;20989;52.566;13.346;2022-10-23T14:16:34;2.40;;;1.35;;
34775;SDS011;20989;52.566;13.346;2022-10-23T14:19:35;1.20;;;1.10;;
34775;SDS011;20989;52.566;13.346;2022-10-23T14:22:36;0.90;;;0.85;;
34775;SDS011;20989;52.566;13.346;2022-10-23T14:25:37;1.67;;;1.00;;
34775;SDS011;20989;52.566;13.346;2022-10-23T14:28:38;1.10;;;1.00;;
34775;SDS011;20989;52.566;13.346;2022-10-23T14:31:39;1.02;;;0.93;;
34775;SDS011;20989;52.566;13.346;2022-10-23T14:34:40;1.65;;;0.98;;
34775;SDS011;20989;52.566;13.346;2022-10-23T14:37:42;1.33;;;1.23;;
34775;SDS011;20989;52.566;13.346;2022-10-23T14:40:43;0.90;;;0.90;;
34775;SDS011;20989;52.566;13.346;2022-10-23T14:43:44;1.45;;;0.95;;
34775;SDS011;20989;52.566;13.346;2022-10-23T14:46:44;2.75;;;0.80;;
34775;SDS011;20989;52.566;13.346;2022-10-23T14:49:47;4.13;;;0.80;;
34775;SDS011;20989;52.566;13.346;2022-10-23T14:52:50;5.40;;;0.95;;
34775;SDS011;20989;52.566;13.346;2022-10-23T14:55:52;14.57;;;2.05;;
34775;SDS011;20989;52.566;13.346;2022-10-23T14:58:59;7.65;;;1.63;;
34775;SDS011;20989;52.566;13.346;2022-10-23T15:02:03;13.52;;;2.90;;
34775;SDS011;20989;52.566;13.346;2022-10-23T15:05:04;5.50;;;2.28;;
34775;SDS011;20989;52.566;13.346;2022-10-23T15:08:05;6.28;;;2.03;;
34775;SDS011;20989;52.566;13.346;2022-10-23T15:11:06;5.70;;;2.40;;
34775;SDS011;20989;52.566;13.346;2022-10-23T15:14:06;8.32;;;3.83;;
34775;SDS011;20989;52.566;13.346;2022-10-23T15:17:07;10.35;;;4.03;;
34775;SDS011;20989;52.566;13.346;2022-10-23T15:20:08;12.55;;;3.40;;
34775;SDS011;20989;52.566;13.346;2022-10-23T15:23:09;13.27;;;3.10;;
34775;SDS011;20989;52.566;13.346;2022-10-23T15:26:14;6.53;;;2.92;;
34775;SDS011;20989;52.566;13.346;2022-10-23T15:29:20;7.05;;;3.05;;
34775;SDS011;20989;52.566;13.346;2022-10-23T15:32:21;6.07;;;2.88;;
34775;SDS011;20989;52.566;13.346;2022-10-23T15:35:22;5.70;;;2.22;;
34775;SDS011;20989;52.566;13.346;2022-10-23T15:38:23;4.85;;;2.63;;
34775;SDS011;20989;52.566;13.346;2022-10-23T15:41:29;3.42;;;2.08;;
34775;SDS011;20989;52.566;13.346;2022-10-23T15:44:32;5.80;;;3.13;;
34775;SDS011;20989;52.566;13.346;2022-10-23T15:47:33;4.45;;;2.65;;
34775;SDS011;20989;52.566;13.346;2022-10-23T15:50:34;12.80;;;5.38;;
34775;SDS011;20989;52.566;13.346;2022-10-23T15:53:35;10.25;;;4.05;;
34775;SDS011;20989;52.566;13.346;2022-10-23T15:56:36;6.25;;;3.53;;
34775;SDS011;20989;52.566;13.346;2022-10-23T15:59:37;7.25;;;4.00;;
34775;SDS011;20989;52.566;13.346;2022-10-23T16:02:38;6.70;;;3.83;;
34775;SDS011;20989;52.566;13.346;2022-10-23T16:05:39;8.35;;;3.95;;
34775;SDS011;20989;52.566;13.346;2022-10-23T16:08:39;11.38;;;4.47;;
34775;SDS011;20989;52.566;13.346;2022-10-23T16:11:42;14.15;;;5.43;;
34775;SDS011;20989;52.566;13.346;2022-10-23T16:14:43;11.65;;;4.55;;
34775;SDS011;20989;52.566;13.346;2022-10-23T16:17:45;21.45;;;9.27;;
34775;SDS011;20989;52.566;13.346;2022-10-23T16:20:46;22.48;;;9.55;;
34775;SDS011;20989;52.566;13.346;2022-10-23T16:23:47;21.52;;;10.98;;
34775;SDS011;20989;52.566;13.346;2022-10-23T16:26:48;24.15;;;10.70;;
34775;SDS011;20989;52.566;13.346;2022-10-23T16:29:52;28.08;;;11.40;;
34775;SDS011;20989;52.566;13.346;2022-10-23T16:32:52;26.90;;;10.48;;
34775;SDS011;20989;52.566;13.346;2022-10-23T16:35:54;28.80;;;11.20;;
34775;SDS011;20989;52.566;13.346;2022-10-23T16:38:54;22.77;;;10.23;;
34775;SDS011;20989;52.566;13.346;2022-10-23T16:41:55;20.13;;;9.70;;
34775;SDS011;20989;52.566;13.346;2022-10-23T16:44:57;18.63;;;9.43;;
34775;SDS011;20989;52.566;13.346;2022-10-23T16:47:57;18.77;;;8.82;;
34775;SDS011;20989;52.566;13.346;2022-10-23T16:50:58;17.92;;;9.00;;
34775;SDS011;20989;52.566;13.346;2022-10-23T16:54:00;16.35;;;8.98;;
34775;SDS011;20989;52.566;13.346;2022-10-23T16:57:01;21.02;;;9.60;;
34775;SDS011;20989;52.566;13.346;2022-10-23T17:00:03;20.05;;;8.45;;
34775;SDS011;20989;52.566;13.346;2022-10-23T17:03:04;15.10;;;7.85;;
34775;SDS011;20989;52.566;13.346;2022-10-23T17:06:07;15.13;;;8.43;;
34775;SDS011;20989;52.566;13.346;2022-10-23T17:09:11;20.10;;;7.63;;
34775;SDS011;20989;52.566;13.346;2022-10-23T17:12:12;17.38;;;8.43;;
34775;SDS011;20989;52.566;13.346;2022-10-23T17:15:14;16.27;;;6.88;;
34775;SDS011;20989;52.566;13.346;2022-10-23T17:18:14;18.13;;;8.07;;
34775;SDS011;20989;52.566;13.346;2022-10-23T17:21:16;15.82;;;6.80;;
34775;SDS011;20989;52.566;13.346;2022-10-23T17:24:19;13.85;;;6.38;;
34775;SDS011;20989;52.566;13.346;2022-10-23T17:27:21;15.40;;;6.45;;
34775;SDS011;20989;52.566;13.346;2022-10-23T17:30:22;10.57;;;6.57;;
34775;SDS011;20989;52.566;13.346;2022-10-23T17:33:22;13.38;;;5.60;;
34775;SDS011;20989;52.566;13.346;2022-10-23T17:36:27;10.98;;;6.28;;
34775;SDS011;20989;52.566;13.346;2022-10-23T17:39:28;13.68;;;6.18;;
34775;SDS011;20989;52.566;13.346;2022-10-23T17:42:29;11.43;;;6.45;;
34775;SDS011;20989;52.566;13.346;2022-10-23T17:45:32;9.25;;;5.70;;
34775;SDS011;20989;52.566;13.346;2022-10-23T17:48:34;12.30;;;5.00;;
34775;SDS011;20989;52.566;13.346;2022-10-23T17:51:35;14.07;;;6.03;;
34775;SDS011;20989;52.566;13.346;2022-10-23T17:54:36;14.73;;;5.10;;
34775;SDS011;20989;52.566;13.346;2022-10-23T17:57:37;14.43;;;5.72;;
34775;SDS011;20989;52.566;13.346;2022-10-23T18:00:38;18.20;;;5.50;;
34775;SDS011;20989;52.566;13.346;2022-10-23T18:03:39;15.55;;;5.32;;
34775;SDS011;20989;52.566;13.346;2022-10-23T18:06:41;26.85;;;5.65;;
34775;SDS011;20989;52.566;13.346;2022-10-23T18:09:44;35.55;;;5.57;;
34775;SDS011;20989;52.566;13.346;2022-10-23T18:12:45;30.90;;;5.70;;
34775;SDS011;20989;52.566;13.346;2022-10-23T18:15:45;24.38;;;4.90;;
34775;SDS011;20989;52.566;13.346;2022-10-23T18:18:47;18.85;;;4.55;;
34775;SDS011;20989;52.566;13.346;2022-10-23T18:21:48;15.90;;;4.22;;
34775;SDS011;20989;52.566;13.346;2022-10-23T18:24:49;13.48;;;4.75;;
34775;SDS011;20989;52.566;13.346;2022-10-23T18:27:50;12.70;;;4.45;;
34775;SDS011;20989;52.566;13.346;2022-10-23T18:30:51;16.17;;;4.80;;
34775;SDS011;20989;52.566;13.346;2022-10-23T18:33:57;10.88;;;4.55;;
34775;SDS011;20989;52.566;13.346;2022-10-23T18:37:00;11.10;;;5.30;;
34775;SDS011;20989;52.566;13.346;2022-10-23T18:40:01;11.38;;;3.92;;
34775;SDS011;20989;52.566;13.346;2022-10-23T18:43:02;7.65;;;3.97;;
34775;SDS011;20989;52.566;13.346;2022-10-23T18:46:04;12.02;;;3.97;;
34775;SDS011;20989;52.566;13.346;2022-10-23T18:49:05;8.43;;;4.55;;
34775;SDS011;20989;52.566;13.346;2022-10-23T18:52:05;10.20;;;4.15;;
34775;SDS011;20989;52.566;13.346;2022-10-23T18:55:07;5.80;;;4.07;;
34775;SDS011;20989;52.566;13.346;2022-10-23T18:58:08;11.18;;;3.65;;
34775;SDS011;20989;52.566;13.346;2022-10-23T19:01:09;4.82;;;3.47;;
34775;SDS011;20989;52.566;13.346;2022-10-23T19:04:10;4.90;;;3.25;;
34775;SDS011;20989;52.566;13.346;2022-10-23T19:07:12;6.80;;;3.70;;
34775;SDS011;20989;52.566;13.346;2022-10-23T19:10:12;8.85;;;3.28;;
34775;SDS011;20989;52.566;13.346;2022-10-23T19:13:17;7.00;;;3.75;;
34775;SDS011;20989;52.566;13.346;2022-10-23T19:19:50;7.78;;;2.97;;
34775;SDS011;20989;52.566;13.346;2022-10-23T19:22:54;4.93;;;3.10;;
34775;SDS011;20989;52.566;13.346;2022-10-23T19:25:58;6.45;;;3.33;;
34775;SDS011;20989;52.566;13.346;2022-10-23T19:29:01;6.68;;;3.38;;
34775;SDS011;20989;52.566;13.346;2022-10-23T19:32:04;5.35;;;2.95;;
34775;SDS011;20989;52.566;13.346;2022-10-23T19:35:05;6.40;;;3.35;;
34775;SDS011;20989;52.566;13.346;2022-10-23T19:38:06;5.80;;;3.38;;
34775;SDS011;20989;52.566;13.346;2022-10-23T19:41:08;4.95;;;3.35;;
34775;SDS011;20989;52.566;13.346;2022-10-23T19:44:09;3.00;;;2.53;;
34775;SDS011;20989;52.566;13.346;2022-10-23T19:47:10;4.47;;;3.10;;
34775;SDS011;20989;52.566;13.346;2022-10-23T19:50:10;5.30;;;2.88;;
34775;SDS011;20989;52.566;13.346;2022-10-23T19:53:11;4.88;;;3.13;;
34775;SDS011;20989;52.566;13.346;2022-10-23T19:56:12;3.55;;;2.83;;
34775;SDS011;20989;52.566;13.346;2022-10-23T19:59:13;5.05;;;2.60;;
34775;SDS011;20989;52.566;13.346;2022-10-23T20:02:15;3.38;;;2.60;;
34775;SDS011;20989;52.566;13.346;2022-10-23T20:05:16;4.18;;;2.65;;
34775;SDS011;20989;52.566;13.346;2022-10-23T20:08:17;2.90;;;2.22;;
34775;SDS011;20989;52.566;13.346;2022-10-23T20:11:21;3.55;;;2.63;;
34775;SDS011;20989;52.566;13.346;2022-10-23T20:14:23;4.50;;;2.80;;